Time;durP1;ratioP1;P1;durP2;ratioP2;P2;SDS_P1;SDS_P2;PMS_P1;PMS_P2;Temp;Humidity;BMP_temperature;BMP_pressure;BME280_temperature;BME280_humidity;BME280_pressure;Samples;Min_cycle;Max_cycle;Signal;HPM_P1;HPM_P2
2022/03/25 00:00:40;;;;;;;12.73;6.32;;;;;;;7.88;nan;101188.44;5023711;28;20045;-72
2022/03/25 00:03:06;;;;;;;19.23;7.10;;;;;;;7.76;nan;101180.25;5025968;28;20045;-70
2022/03/25 00:05:32;;;;;;;16.15;6.50;;;;;;;7.79;nan;101184.31;5022953;28;20392;-70
2022/03/25 00:07:57;;;;;;;15.55;6.10;;;;;;;7.72;nan;101184.22;5025907;28;20476;-68
2022/03/25 00:10:23;;;;;;;14.43;6.70;;;;;;;7.73;nan;101185.84;5029131;28;20041;-70
2022/03/25 00:12:49;;;;;;;17.15;6.70;;;;;;;7.71;nan;101187.88;5023656;28;20037;-71
2022/03/25 00:15:15;;;;;;;16.60;6.50;;;;;;;7.61;nan;101179.47;5017389;28;20048;-70
2022/03/25 00:17:40;;;;;;;14.43;6.47;;;;;;;7.30;nan;101143.84;5017948;28;20042;-69
2022/03/25 00:20:07;;;;;;;13.00;6.57;;;;;;;7.49;nan;101187.00;5019349;28;20026;-69
2022/03/25 00:22:32;;;;;;;15.73;6.68;;;;;;;7.49;nan;101187.00;5015643;28;20045;-69
2022/03/25 00:24:58;;;;;;;17.85;6.75;;;;;;;7.42;nan;101173.84;5024587;28;20140;-70
2022/03/25 00:27:23;;;;;;;13.98;6.43;;;;;;;7.45;nan;101188.38;5016653;28;20034;-71
2022/03/25 00:29:49;;;;;;;12.95;6.05;;;;;;;7.40;nan;101186.31;5020049;28;20056;-71
2022/03/25 00:32:16;;;;;;;13.52;6.78;;;;;;;7.20;nan;101172.16;5015744;28;20083;-69
2022/03/25 00:34:42;;;;;;;11.63;6.07;;;;;;;7.24;nan;101176.06;5026355;28;20041;-69
2022/03/25 00:37:07;;;;;;;14.18;6.22;;;;;;;7.24;nan;101183.91;5027697;28;20064;-68
2022/03/25 00:39:33;;;;;;;14.10;6.28;;;;;;;7.16;nan;101182.22;5027265;28;20554;-69
2022/03/25 00:41:58;;;;;;;14.73;6.75;;;;;;;7.01;nan;101160.44;5010654;28;20503;-69
2022/03/25 00:44:24;;;;;;;13.35;7.07;;;;;;;7.12;nan;101188.00;5019931;28;20049;-69
2022/03/25 00:46:50;;;;;;;14.20;6.70;;;;;;;7.06;nan;101178.22;5009353;28;20041;-69
2022/03/25 00:49:17;;;;;;;13.05;7.03;;;;;;;7.06;nan;101181.66;5010334;28;20488;-69
2022/03/25 00:51:42;;;;;;;14.68;6.40;;;;;;;7.00;nan;101171.94;5027454;28;20045;-69
2022/03/25 00:54:10;;;;;;;14.00;6.65;;;;;;;7.05;nan;101193.13;5009231;28;20033;-70
2022/03/25 00:56:35;;;;;;;17.92;6.72;;;;;;;6.94;nan;101183.94;5023517;28;20034;-70
2022/03/25 00:59:01;;;;;;;13.50;6.40;;;;;;;6.85;nan;101174.56;5021523;28;20075;-70
2022/03/25 01:01:26;;;;;;;13.88;6.50;;;;;;;6.88;nan;101191.72;5001209;28;20585;-69
2022/03/25 01:03:52;;;;;;;15.77;6.78;;;;;;;6.81;nan;101183.75;5027190;28;20113;-68
2022/03/25 01:06:18;;;;;;;14.43;6.65;;;;;;;6.80;nan;101184.75;5009679;28;20037;-69
2022/03/25 01:08:44;;;;;;;13.65;6.18;;;;;;;6.75;nan;101176.63;5022943;28;20048;-69
2022/03/25 01:11:10;;;;;;;15.65;6.82;;;;;;;6.77;nan;101190.34;5021857;28;20503;-69
2022/03/25 01:13:36;;;;;;;15.25;6.97;;;;;;;6.79;nan;101191.78;5006844;28;20092;-69
2022/03/25 01:16:05;;;;;;;13.13;6.13;;;;;;;6.79;nan;101190.97;5017592;28;20037;-70
2022/03/25 01:18:31;;;;;;;14.48;7.15;;;;;;;6.68;nan;101178.31;5022666;28;20034;-69
2022/03/25 01:20:57;;;;;;;17.48;7.57;;;;;;;6.75;nan;101187.09;5023347;28;20033;-70
2022/03/25 01:23:24;;;;;;;17.23;7.22;;;;;;;6.72;nan;101190.06;4994144;28;20041;-69
2022/03/25 01:25:50;;;;;;;14.23;6.65;;;;;;;6.61;nan;101188.72;5024893;28;20400;-70
2022/03/25 01:28:15;;;;;;;14.85;6.88;;;;;;;6.57;nan;101190.88;5026523;28;20030;-70
2022/03/25 01:30:42;;;;;;;15.23;6.82;;;;;;;6.47;nan;101179.84;5013102;28;20078;-69
2022/03/25 01:33:09;;;;;;;14.38;6.70;;;;;;;6.48;nan;101191.94;5016024;28;20040;-70
2022/03/25 01:35:34;;;;;;;13.88;7.18;;;;;;;6.41;nan;101198.88;5007235;28;20057;-69
2022/03/25 01:38:01;;;;;;;16.05;6.85;;;;;;;6.27;nan;101178.72;5007860;28;20107;-70
2022/03/25 01:40:27;;;;;;;13.77;7.22;;;;;;;6.33;nan;101193.72;5027780;28;20037;-70
2022/03/25 01:42:52;;;;;;;15.05;7.10;;;;;;;6.33;nan;101205.00;5023523;28;20048;-70
2022/03/25 01:45:34;;;;;;;15.80;7.13;;;;;;;6.24;nan;101205.25;5005967;28;20041;-70
2022/03/25 01:48:14;;;;;;;16.08;7.05;;;;;;;6.03;nan;101182.34;5028942;28;20380;-70
2022/03/25 01:50:41;;;;;;;14.05;6.85;;;;;;;6.07;nan;101200.13;5025285;28;20468;-70
2022/03/25 01:53:26;;;;;;;15.30;6.72;;;;;;;6.13;nan;101207.28;5026606;28;20037;-70
2022/03/25 01:55:56;;;;;;;15.85;7.22;;;;;;;6.02;nan;101212.91;5031150;28;20044;-70
2022/03/25 01:58:23;;;;;;;14.02;6.28;;;;;;;5.92;nan;101196.63;5009277;28;20053;-70
2022/03/25 02:00:49;;;;;;;14.70;7.00;;;;;;;5.89;nan;101215.25;5025670;28;20073;-69
2022/03/25 02:03:16;;;;;;;14.63;6.63;;;;;;;5.79;nan;101193.78;5009415;28;20111;-69
2022/03/25 02:05:46;;;;;;;14.75;6.90;;;;;;;5.73;nan;101200.53;5010503;28;20053;-69
2022/03/25 02:08:11;;;;;;;14.95;6.65;;;;;;;5.72;nan;101196.25;5006243;28;20169;-71
2022/03/25 02:10:38;;;;;;;14.60;6.80;;;;;;;5.74;nan;101199.53;5002065;28;20143;-70
2022/03/25 02:13:04;;;;;;;15.77;7.18;;;;;;;5.72;nan;101193.66;5010744;28;20487;-70
2022/03/25 02:15:41;;;;;;;16.20;7.13;;;;;;;5.59;nan;101198.66;5008758;28;20049;-71
2022/03/25 02:18:09;;;;;;;17.60;7.28;;;;;;;5.61;nan;101196.69;5008269;28;20383;-70
2022/03/25 02:20:37;;;;;;;15.13;7.28;;;;;;;5.68;nan;101216.72;5009553;28;20045;-69
2022/03/25 02:23:04;;;;;;;19.67;7.28;;;;;;;5.64;nan;101220.66;4997367;28;20345;-70
2022/03/25 02:25:30;;;;;;;17.38;7.22;;;;;;;5.63;nan;101215.63;5003068;28;20049;-70
2022/03/25 02:28:00;;;;;;;17.05;7.38;;;;;;;5.54;nan;101201.75;5002991;28;20039;-70
2022/03/25 02:30:27;;;;;;;15.65;7.57;;;;;;;5.64;nan;101227.69;5005858;28;20048;-70
2022/03/25 02:33:00;;;;;;;13.75;7.25;;;;;;;5.65;nan;101221.44;5007589;28;20033;-70
2022/03/25 02:35:49;;;;;;;17.40;7.32;;;;;;;5.50;nan;101195.25;5008910;28;20045;-71
2022/03/25 02:38:20;;;;;;;17.83;7.18;;;;;;;5.58;nan;101223.97;4981545;28;20084;-71
2022/03/25 02:40:46;;;;;;;16.92;7.07;;;;;;;5.51;nan;101209.97;5010422;28;20041;-70
2022/03/25 02:43:12;;;;;;;17.13;7.57;;;;;;;5.59;nan;101224.75;5009191;28;20742;-70
2022/03/25 02:45:38;;;;;;;15.77;7.38;;;;;;;5.49;nan;101222.38;5011398;28;20513;-70
2022/03/25 02:48:04;;;;;;;15.15;8.00;;;;;;;5.55;nan;101232.13;5008426;28;20029;-70
2022/03/25 02:50:30;;;;;;;16.92;8.32;;;;;;;5.21;nan;101182.84;4993376;28;20053;-68
2022/03/25 02:53:00;;;;;;;20.20;9.88;;;;;;;5.48;nan;101231.16;5009760;28;20484;-69
2022/03/25 02:55:26;;;;;;;18.40;8.57;;;;;;;5.38;nan;101223.53;5010793;28;20057;-68
2022/03/25 02:57:53;;;;;;;18.58;8.68;;;;;;;5.44;nan;101237.75;5008588;28;20033;-70
2022/03/25 03:00:21;;;;;;;15.57;7.60;;;;;;;5.41;nan;101236.28;5009142;28;20030;-70
2022/03/25 03:02:48;;;;;;;16.75;8.65;;;;;;;5.30;nan;101232.25;5012492;28;20046;-70
2022/03/25 03:05:14;;;;;;;17.67;7.63;;;;;;;5.31;nan;101236.47;5013158;28;20096;-69
2022/03/25 03:07:40;;;;;;;16.33;7.68;;;;;;;5.25;nan;101234.53;5009795;28;20045;-69
2022/03/25 03:10:07;;;;;;;20.52;8.18;;;;;;;5.28;nan;101234.19;5015250;28;20641;-69
2022/03/25 03:12:33;;;;;;;16.90;7.90;;;;;;;5.19;nan;101227.38;5034764;28;20097;-70
2022/03/25 03:15:00;;;;;;;17.05;7.78;;;;;;;5.24;nan;101242.53;5030648;28;20044;-69
2022/03/25 03:17:25;;;;;;;18.27;7.65;;;;;;;5.11;nan;101224.81;5032065;28;20040;-69
2022/03/25 03:19:51;;;;;;;16.20;7.38;;;;;;;5.11;nan;101225.63;5038889;28;20041;-69
2022/03/25 03:22:17;;;;;;;17.98;8.32;;;;;;;5.04;nan;101229.88;5040433;28;20052;-69
2022/03/25 03:24:43;;;;;;;19.15;7.65;;;;;;;5.13;nan;101243.72;5040964;28;20061;-70
2022/03/25 03:27:10;;;;;;;21.40;8.10;;;;;;;5.07;nan;101239.16;5042640;28;20108;-69
2022/03/25 03:29:36;;;;;;;18.10;7.05;;;;;;;4.98;nan;101227.13;5033231;28;20057;-69
2022/03/25 03:32:02;;;;;;;17.80;7.35;;;;;;;5.01;nan;101232.03;5023878;28;20444;-69
2022/03/25 03:34:28;;;;;;;16.85;8.30;;;;;;;4.92;nan;101219.97;5023484;28;20045;-70
2022/03/25 03:36:53;;;;;;;14.38;7.15;;;;;;;4.97;nan;101233.34;5025312;28;20045;-70
2022/03/25 03:39:19;;;;;;;20.05;8.23;;;;;;;4.95;nan;101235.28;5023750;28;20061;-70
2022/03/25 03:41:44;;;;;;;17.30;8.50;;;;;;;4.92;nan;101233.84;5030453;28;20033;-69
2022/03/25 03:44:10;;;;;;;21.33;8.32;;;;;;;4.99;nan;101247.84;5027147;28;20648;-70
2022/03/25 03:46:35;;;;;;;23.77;8.05;;;;;;;5.03;nan;101251.75;5029236;28;20057;-70
2022/03/25 03:49:01;;;;;;;17.75;8.75;;;;;;;4.92;nan;101225.19;5028771;28;20040;-70
2022/03/25 03:51:27;;;;;;;17.88;8.02;;;;;;;5.03;nan;101253.56;5027874;28;20060;-71
2022/03/25 03:53:52;;;;;;;17.58;8.07;;;;;;;5.00;nan;101253.88;5026055;28;20527;-70
2022/03/25 03:56:17;;;;;;;20.17;7.93;;;;;;;4.86;nan;101237.94;5018614;28;20108;-71
2022/03/25 03:58:43;;;;;;;16.73;7.70;;;;;;;4.86;nan;101247.53;5027917;28;20041;-70
2022/03/25 04:01:08;;;;;;;15.93;7.80;;;;;;;4.93;nan;101258.94;5021870;28;20389;-70
2022/03/25 04:03:34;;;;;;;20.35;9.43;;;;;;;4.82;nan;101241.84;5025176;28;20061;-70
2022/03/25 04:06:00;;;;;;;15.75;8.18;;;;;;;4.89;nan;101255.84;5025980;28;20091;-70
2022/03/25 04:08:25;;;;;;;18.48;8.73;;;;;;;4.93;nan;101265.97;5027214;28;20034;-70
2022/03/25 04:10:51;;;;;;;18.10;8.35;;;;;;;4.93;nan;101264.16;5026766;28;20049;-69
2022/03/25 04:13:16;;;;;;;19.92;8.77;;;;;;;4.86;nan;101253.59;5027823;28;20040;-70
2022/03/25 04:15:42;;;;;;;22.77;8.73;;;;;;;4.89;nan;101271.50;5021372;28;20041;-70
2022/03/25 04:18:08;;;;;;;22.85;9.57;;;;;;;4.88;nan;101272.50;5024495;28;20034;-70
2022/03/25 04:20:34;;;;;;;25.08;9.23;;;;;;;4.66;nan;101252.31;5022963;28;20142;-70
2022/03/25 04:23:00;;;;;;;21.30;9.57;;;;;;;4.78;nan;101265.81;5026075;28;20152;-70
2022/03/25 04:25:25;;;;;;;20.38;8.95;;;;;;;4.76;nan;101262.56;5025253;28;20120;-69
2022/03/25 04:27:56;;;;;;;18.40;9.68;;;;;;;4.73;nan;101273.34;5026451;28;20095;-69
2022/03/25 04:30:25;;;;;;;19.60;8.98;;;;;;;4.46;nan;101251.84;5004230;28;20059;-71
2022/03/25 04:32:51;;;;;;;23.73;11.35;;;;;;;4.54;nan;101279.69;5025804;28;20034;-70
2022/03/25 04:35:17;;;;;;;22.10;10.02;;;;;;;4.50;nan;101294.03;5020836;28;20042;-70
2022/03/25 04:37:43;;;;;;;20.20;9.75;;;;;;;4.45;nan;101292.75;5010130;28;20246;-70
2022/03/25 04:40:11;;;;;;;25.02;9.60;;;;;;;4.35;nan;101294.69;5026463;28;20518;-70
2022/03/25 04:42:37;;;;;;;27.23;10.20;;;;;;;4.25;nan;101305.25;5016970;28;20387;-70
2022/03/25 04:45:03;;;;;;;21.38;9.73;;;;;;;4.19;nan;101305.09;5006274;28;20033;-70
2022/03/25 04:47:28;;;;;;;20.52;9.57;;;;;;;4.08;nan;101292.38;5017665;28;20078;-69
2022/03/25 04:49:54;;;;;;;23.80;9.70;;;;;;;4.16;nan;101308.03;5028738;28;20061;-70
2022/03/25 04:52:19;;;;;;;21.33;9.75;;;;;;;3.94;nan;101286.78;5024699;28;20142;-70
2022/03/25 04:54:45;;;;;;;23.02;9.88;;;;;;;4.01;nan;101298.22;5015448;28;20040;-69
2022/03/25 04:57:10;;;;;;;22.20;9.05;;;;;;;4.01;nan;101305.22;5024393;28;20165;-69
2022/03/25 04:59:36;;;;;;;18.50;9.30;;;;;;;4.02;nan;101312.06;5025281;28;20057;-70
2022/03/25 05:02:02;;;;;;;20.77;8.88;;;;;;;4.09;nan;101317.44;5010382;28;20128;-69
2022/03/25 05:04:27;;;;;;;20.90;9.73;;;;;;;3.92;nan;101299.16;5028802;28;20033;-69
2022/03/25 05:06:53;;;;;;;19.73;8.65;;;;;;;4.08;nan;101324.47;5019193;28;20030;-69
2022/03/25 05:09:18;;;;;;;24.17;9.82;;;;;;;4.01;nan;101313.84;5018994;28;20125;-72
2022/03/25 05:11:44;;;;;;;17.60;8.90;;;;;;;4.12;nan;101325.78;5011614;28;20048;-70
2022/03/25 05:14:10;;;;;;;25.30;9.13;;;;;;;4.22;nan;101333.47;5011903;28;20053;-70
2022/03/25 05:16:36;;;;;;;21.15;9.50;;;;;;;4.15;nan;101307.22;5026713;28;20029;-70
2022/03/25 05:19:02;;;;;;;21.23;9.35;;;;;;;4.25;nan;101326.13;5025250;28;20112;-70
2022/03/25 05:21:27;;;;;;;28.58;9.68;;;;;;;4.40;nan;101335.91;5028289;28;20029;-70
2022/03/25 05:23:53;;;;;;;21.48;9.57;;;;;;;4.34;nan;101316.53;5022688;28;20047;-70
2022/03/25 05:26:18;;;;;;;23.50;9.57;;;;;;;4.47;nan;101323.88;5022635;28;20484;-70
2022/03/25 05:28:44;;;;;;;25.92;9.82;;;;;;;4.64;nan;101346.38;5029255;28;20400;-70
2022/03/25 05:31:09;;;;;;;22.48;9.73;;;;;;;4.67;nan;101330.41;5027105;28;20479;-70
2022/03/25 05:33:34;;;;;;;23.88;9.27;;;;;;;4.78;nan;101349.31;5032566;28;20045;-69
2022/03/25 05:36:01;;;;;;;24.45;9.80;;;;;;;4.92;nan;101356.50;5024746;28;20072;-70
2022/03/25 05:38:26;;;;;;;22.58;9.95;;;;;;;4.93;nan;101341.66;5015633;28;20038;-71
2022/03/25 05:40:51;;;;;;;19.75;9.38;;;;;;;5.00;nan;101340.00;5020288;28;20037;-70
2022/03/25 05:43:17;;;;;;;24.83;10.10;;;;;;;5.08;nan;101356.50;5020236;28;20120;-69
2022/03/25 05:45:42;;;;;;;24.33;10.88;;;;;;;5.11;nan;101350.94;5027978;28;20121;-70
2022/03/25 05:48:08;;;;;;;27.60;10.60;;;;;;;5.20;nan;101367.41;5019176;28;20044;-68
2022/03/25 05:50:34;;;;;;;23.20;10.02;;;;;;;5.20;nan;101362.19;5030843;28;20061;-68
2022/03/25 05:53:00;;;;;;;22.65;9.60;;;;;;;5.22;nan;101367.22;5019251;28;20045;-68
2022/03/25 05:55:25;;;;;;;25.23;9.93;;;;;;;5.19;nan;101362.34;5023844;28;20132;-70
2022/03/25 05:57:51;;;;;;;20.75;9.93;;;;;;;5.23;nan;101356.63;5019653;28;20034;-71
2022/03/25 06:00:17;;;;;;;20.83;9.93;;;;;;;5.13;nan;101340.34;5030660;28;20049;-71
2022/03/25 06:02:43;;;;;;;22.27;10.25;;;;;;;5.31;nan;101361.00;5025300;28;20131;-70
2022/03/25 06:05:10;;;;;;;24.35;9.52;;;;;;;5.45;nan;101368.16;5029227;28;20483;-71
2022/03/25 06:07:41;;;;;;;28.02;10.50;;;;;;;5.48;nan;101374.84;5009728;28;20037;-72
2022/03/25 06:10:09;;;;;;;24.52;9.68;;;;;;;5.56;nan;101374.84;5020173;28;20523;-73
2022/03/25 06:12:35;;;;;;;19.58;10.00;;;;;;;5.55;nan;101362.75;5016233;28;20041;-69
2022/03/25 06:15:00;;;;;;;29.88;10.35;;;;;;;5.67;nan;101363.19;5022572;28;20119;-69
2022/03/25 06:17:26;;;;;;;21.00;10.05;;;;;;;5.79;nan;101384.56;5013790;28;20042;-71
2022/03/25 06:19:52;;;;;;;19.63;9.75;;;;;;;5.87;nan;101382.75;5010552;28;20073;-68
2022/03/25 06:22:18;;;;;;;26.20;11.35;;;;;;;5.96;nan;101381.75;5012244;28;20030;-68
2022/03/25 06:24:44;;;;;;;28.83;10.25;;;;;;;6.03;nan;101378.44;5028718;28;20041;-70
2022/03/25 06:27:10;;;;;;;26.60;11.25;;;;;;;6.17;nan;101378.53;5026401;28;20091;-69
2022/03/25 06:29:37;;;;;;;21.00;9.57;;;;;;;6.25;nan;101372.47;5021830;28;20058;-68
2022/03/25 06:32:05;;;;;;;24.35;10.05;;;;;;;6.35;nan;101380.09;5022708;28;20037;-70
2022/03/25 06:34:31;;;;;;;19.45;10.57;;;;;;;6.45;nan;101388.53;5026419;28;20547;-69
2022/03/25 06:36:56;;;;;;;23.50;9.60;;;;;;;6.56;nan;101397.75;5030675;28;20037;-69
2022/03/25 06:39:22;;;;;;;30.60;10.45;;;;;;;6.54;nan;101377.03;5009224;28;20037;-70
2022/03/25 06:41:47;;;;;;;24.33;10.27;;;;;;;6.70;nan;101375.25;5023828;28;20427;-69
2022/03/25 06:44:13;;;;;;;20.83;9.55;;;;;;;6.82;nan;101395.63;5021572;28;20076;-69
2022/03/25 06:46:39;;;;;;;21.20;10.63;;;;;;;6.80;nan;101378.47;5027584;28;20048;-68
2022/03/25 06:49:05;;;;;;;20.75;10.45;;;;;;;7.02;nan;101390.72;5009626;28;20038;-70
2022/03/25 06:51:31;;;;;;;25.23;10.48;;;;;;;7.10;nan;101378.53;5028678;28;20025;-70
2022/03/25 06:53:57;;;;;;;22.38;10.32;;;;;;;7.26;nan;101385.44;5024639;28;20061;-69
2022/03/25 06:56:22;;;;;;;24.05;11.25;;;;;;;7.41;nan;101397.56;5008730;28;20033;-69
2022/03/25 06:58:48;;;;;;;24.25;11.40;;;;;;;7.52;nan;101392.84;5029768;28;20037;-67
2022/03/25 07:01:14;;;;;;;23.25;10.75;;;;;;;7.57;nan;101395.78;5032406;28;20029;-69
2022/03/25 07:03:40;;;;;;;20.73;11.45;;;;;;;7.73;nan;101392.94;5028185;28;20049;-67
2022/03/25 07:06:06;;;;;;;25.92;13.65;;;;;;;7.87;nan;101401.81;5031781;28;20376;-68
2022/03/25 07:08:34;;;;;;;27.45;12.00;;;;;;;7.91;nan;101394.41;5024596;28;20030;-68
2022/03/25 07:11:00;;;;;;;21.45;10.52;;;;;;;8.06;nan;101392.56;5025413;28;20391;-68
2022/03/25 07:13:27;;;;;;;29.50;12.32;;;;;;;8.26;nan;101408.53;5031910;28;20025;-68
2022/03/25 07:15:53;;;;;;;24.85;11.23;;;;;;;8.40;nan;101401.66;5024059;28;20033;-68
2022/03/25 07:18:18;;;;;;;26.52;10.23;;;;;;;8.50;nan;101407.44;5030268;28;20124;-68
2022/03/25 07:20:44;;;;;;;29.08;13.63;;;;;;;8.67;nan;101416.69;5031145;28;20033;-68
2022/03/25 07:23:09;;;;;;;29.42;13.55;;;;;;;8.69;nan;101406.81;5031768;28;20046;-68
2022/03/25 07:25:35;;;;;;;21.65;9.93;;;;;;;8.84;nan;101409.38;5028532;28;20037;-68
2022/03/25 07:28:00;;;;;;;27.92;12.48;;;;;;;9.02;nan;101414.16;5030196;28;20052;-68
2022/03/25 07:30:25;;;;;;;23.85;12.13;;;;;;;9.24;nan;101425.50;5026404;28;20160;-67
2022/03/25 07:32:51;;;;;;;21.83;10.30;;;;;;;9.35;nan;101421.50;5021414;28;20403;-67
2022/03/25 07:35:17;;;;;;;22.83;10.60;;;;;;;9.45;nan;101432.50;5032542;28;20049;-69
2022/03/25 07:37:43;;;;;;;28.55;11.88;;;;;;;9.66;nan;101438.72;5040677;28;20033;-71
2022/03/25 07:40:11;;;;;;;22.30;10.73;;;;;;;9.68;nan;101426.19;5027458;28;20038;-69
2022/03/25 07:42:37;;;;;;;30.90;11.10;;;;;;;9.76;nan;101434.72;5033160;28;20057;-69
2022/03/25 07:45:04;;;;;;;27.60;10.02;;;;;;;9.85;nan;101438.00;5032673;28;20117;-69
2022/03/25 07:47:32;;;;;;;24.05;9.98;;;;;;;9.92;nan;101435.41;5036654;28;20037;-69
2022/03/25 07:50:00;;;;;;;21.75;10.93;;;;;;;10.06;nan;101439.72;5051285;28;20033;-67
2022/03/25 07:52:26;;;;;;;18.48;9.57;;;;;;;10.13;nan;101434.50;5027448;28;20033;-70
2022/03/25 07:54:51;;;;;;;21.63;10.23;;;;;;;10.25;nan;101437.34;5027559;28;20046;-71
2022/03/25 07:57:16;;;;;;;21.42;10.32;;;;;;;10.48;nan;101447.59;5010681;28;20034;-69
2022/03/25 07:59:42;;;;;;;21.58;9.98;;;;;;;10.48;nan;101435.25;5036681;28;20042;-71
2022/03/25 08:02:08;;;;;;;18.35;9.93;;;;;;;10.43;nan;101429.75;5021049;28;20068;-71
2022/03/25 08:04:33;;;;;;;20.65;9.50;;;;;;;10.59;nan;101447.84;5028831;28;20075;-70
2022/03/25 08:06:58;;;;;;;21.80;9.70;;;;;;;;;;5011923;28;20361;-72
2022/03/25 08:09:24;;;;;;;19.40;8.63;;;;;;;;;;5012635;28;20042;-71
2022/03/25 08:11:49;;;;;;;20.63;9.43;;;;;;;;;;5027927;28;20318;-71
2022/03/25 08:14:15;;;;;;;23.08;9.50;;;;;;;10.83;nan;101432.50;5030017;28;20045;-72
2022/03/25 08:16:45;;;;;;;17.58;8.98;;;;;;;10.87;nan;101428.44;5028616;28;20094;-72
2022/03/25 08:19:11;;;;;;;23.80;10.55;;;;;;;10.93;nan;101440.00;5030192;28;20069;-71
2022/03/25 08:21:37;;;;;;;16.63;9.13;;;;;;;11.11;nan;101448.13;5017902;28;20041;-71
2022/03/25 08:29:31;;;;;;;34.00;9.48;;;;;;;11.22;nan;101429.03;5020561;28;20036;-69
2022/03/25 08:31:56;;;;;;;30.10;10.52;;;;;;;11.40;nan;101459.28;5011410;28;20139;-72
2022/03/25 08:34:22;;;;;;;19.55;9.13;;;;;;;11.46;nan;101461.88;5029718;28;20468;-70
2022/03/25 08:36:49;;;;;;;19.08;8.27;;;;;;;11.52;nan;101459.44;5026520;28;20676;-72
2022/03/25 08:39:15;;;;;;;28.35;9.23;;;;;;;11.52;nan;101465.56;5029792;28;20067;-72
2022/03/25 08:41:41;;;;;;;21.95;9.45;;;;;;;11.55;nan;101454.59;5025243;28;20030;-71
2022/03/25 08:44:07;;;;;;;25.67;9.40;;;;;;;11.58;nan;101446.25;5029940;28;20032;-70
2022/03/25 08:46:34;;;;;;;25.40;9.38;;;;;;;11.74;nan;101473.22;5023450;28;20072;-69
2022/03/25 08:49:00;;;;;;;19.48;9.00;;;;;;;11.71;nan;101448.06;5029693;28;20029;-70
2022/03/25 08:51:26;;;;;;;26.48;9.68;;;;;;;11.87;nan;101460.81;5025078;28;20754;-70
2022/03/25 08:53:52;;;;;;;30.73;8.88;;;;;;;11.76;nan;101427.16;5010409;28;20065;-71
2022/03/25 08:56:19;;;;;;;23.50;10.02;;;;;;;12.09;nan;101463.19;5017341;28;20025;-69
2022/03/25 08:58:44;;;;;;;18.00;8.65;;;;;;;12.00;nan;101432.78;5021166;28;20041;-70
2022/03/25 09:01:10;;;;;;;29.52;10.23;;;;;;;12.10;nan;101441.88;5011494;28;20487;-70
2022/03/25 09:03:35;;;;;;;22.40;8.38;;;;;;;12.32;nan;101444.22;5026603;28;20782;-70
2022/03/25 09:06:00;;;;;;;17.73;8.02;;;;;;;12.31;nan;101439.97;5015471;28;20048;-70
2022/03/25 09:08:26;;;;;;;19.60;9.32;;;;;;;12.44;nan;101450.47;5020559;28;20053;-71
2022/03/25 09:10:53;;;;;;;15.52;8.38;;;;;;;12.48;nan;101456.16;5033782;28;20441;-70
2022/03/25 09:13:19;;;;;;;28.77;9.43;;;;;;;12.46;nan;101437.06;5031932;28;20041;-70
2022/03/25 09:15:45;;;;;;;37.53;8.93;;;;;;;12.62;nan;101451.56;5033303;28;20389;-71
2022/03/25 09:18:12;;;;;;;25.67;8.98;;;;;;;12.41;nan;101432.41;5032167;28;20032;-70
2022/03/25 09:20:38;;;;;;;20.58;9.48;;;;;;;12.43;nan;101442.75;5015185;28;20040;-70
2022/03/25 09:23:04;;;;;;;23.02;8.38;;;;;;;12.59;nan;101444.09;5021575;28;20488;-69
2022/03/25 09:25:30;;;;;;;28.65;8.63;;;;;;;12.64;nan;101434.50;5027398;28;20469;-70
2022/03/25 09:27:55;;;;;;;25.75;8.88;;;;;;;12.75;nan;101451.50;5031745;28;20041;-70
2022/03/25 09:30:21;;;;;;;23.73;9.65;;;;;;;12.69;nan;101452.34;5015360;28;20029;-71
2022/03/25 09:32:46;;;;;;;18.55;8.27;;;;;;;12.63;nan;101426.78;5005902;28;20034;-71
2022/03/25 09:35:13;;;;;;;18.58;8.10;;;;;;;12.77;nan;101437.06;5011325;28;20040;-72
2022/03/25 09:37:47;;;;;;;20.13;9.20;;;;;;;12.96;nan;101445.88;5021015;28;20092;-72
2022/03/25 09:40:17;;;;;;;24.48;9.05;;;;;;;12.99;nan;101437.50;5033203;28;20026;-73
2022/03/25 09:42:43;;;;;;;21.10;8.77;;;;;;;13.05;nan;101448.25;5027879;28;20033;-68
2022/03/25 09:45:11;;;;;;;20.02;8.50;;;;;;;12.97;nan;101420.25;5020018;28;20507;-68
2022/03/25 09:47:37;;;;;;;19.75;8.75;;;;;;;13.20;nan;101443.47;5032563;28;20033;-69
2022/03/25 09:50:07;;;;;;;19.98;8.55;;;;;;;13.26;nan;101447.06;5030311;28;20044;-69
2022/03/25 09:52:34;;;;;;;17.10;7.70;;;;;;;13.33;nan;101453.13;5030557;28;20067;-68
2022/03/25 09:55:00;;;;;;;18.10;8.07;;;;;;;13.34;nan;101438.91;5018642;28;20491;-68
2022/03/25 09:57:26;;;;;;;19.50;8.65;;;;;;;13.33;nan;101446.00;5033632;28;20171;-69
2022/03/25 09:59:52;;;;;;;17.17;8.25;;;;;;;13.38;nan;101438.25;5032160;28;20033;-68
2022/03/25 10:02:18;;;;;;;18.25;7.93;;;;;;;13.46;nan;101436.34;5015790;28;20057;-69
2022/03/25 10:04:46;;;;;;;21.75;8.25;;;;;;;13.54;nan;101436.06;5007594;28;20038;-69
2022/03/25 10:07:25;;;;;;;27.48;7.65;;;;;;;13.60;nan;101438.63;5013615;28;20034;-69
2022/03/25 10:10:11;;;;;;;18.73;7.30;;;;;;;13.68;nan;101431.44;5010469;28;20065;-70
2022/03/25 10:12:39;;;;;;;18.90;7.38;;;;;;;13.61;nan;101402.38;5012284;28;20129;-72
2022/03/25 10:15:37;;;;;;;13.23;6.47;;;;;;;13.78;nan;101427.22;5014508;28;20683;-70
2022/03/25 10:18:05;;;;;;;23.10;7.38;;;;;;;13.83;nan;101408.84;4990382;28;20049;-69
2022/03/25 10:20:42;;;;;;;20.30;7.15;;;;;;;13.86;nan;101420.81;4997400;28;20062;-70
2022/03/25 10:23:19;;;;;;;20.17;8.13;;;;;;;13.90;nan;101413.28;5012875;28;20050;-70
2022/03/25 10:25:55;;;;;;;14.90;7.88;;;;;;;14.03;nan;101423.69;5009292;28;20112;-69
2022/03/25 10:28:28;;;;;;;15.82;7.32;;;;;;;14.10;nan;101415.66;5011785;28;20495;-70
2022/03/25 10:30:57;;;;;;;17.85;6.78;;;;;;;14.21;nan;101423.66;5021544;28;20056;-70
2022/03/25 10:33:31;;;;;;;18.93;6.80;;;;;;;14.27;nan;101403.44;5009934;28;20547;-69
2022/03/25 10:36:08;;;;;;;14.55;7.47;;;;;;;14.25;nan;101408.16;4993109;28;20042;-69
2022/03/25 10:38:48;;;;;;;18.40;6.75;;;;;;;14.33;nan;101414.97;5010230;28;20432;-69
2022/03/25 10:41:22;;;;;;;16.55;7.18;;;;;;;14.12;nan;101410.94;5003504;28;20125;-70
2022/03/25 10:43:54;;;;;;;14.85;6.38;;;;;;;14.43;nan;101409.94;5017543;28;20038;-69
2022/03/25 10:46:48;;;;;;;20.98;6.60;;;;;;;14.46;nan;101407.66;5006904;28;20042;-70
2022/03/25 10:49:17;;;;;;;16.73;8.52;;;;;;;14.52;nan;101411.22;4998779;28;20040;-70
2022/03/25 10:51:56;;;;;;;20.05;9.02;;;;;;;14.58;nan;101402.41;5012569;28;20034;-70
2022/03/25 10:54:23;;;;;;;;;;;;;;;14.66;nan;101406.56;5007144;28;20026;-70
2022/03/25 10:56:52;;;;;;;18.35;7.53;;;;;;;14.68;nan;101400.00;5008216;28;19917;-71
2022/03/25 10:59:30;;;;;;;18.58;8.13;;;;;;;14.73;nan;101403.84;5006144;28;20029;-70
2022/03/25 11:01:58;;;;;;;19.58;8.50;;;;;;;14.64;nan;101388.25;5012474;28;20049;-71
2022/03/25 11:04:24;;;;;;;20.20;8.07;;;;;;;14.78;nan;101390.69;5028556;28;20042;-71
2022/03/25 11:06:50;;;;;;;13.63;7.70;;;;;;;14.94;nan;101397.97;5009496;28;20407;-71
2022/03/25 11:09:17;;;;;;;17.40;7.07;;;;;;;14.93;nan;101395.56;5010477;28;20026;-71
2022/03/25 11:11:45;;;;;;;17.50;6.93;;;;;;;15.00;nan;101390.94;5019622;28;20064;-71
2022/03/25 11:14:12;;;;;;;18.67;7.13;;;;;;;14.97;nan;101394.88;5031245;28;20380;-71
2022/03/25 11:16:44;;;;;;;18.90;6.80;;;;;;;15.08;nan;101398.53;5017147;28;20081;-69
2022/03/25 11:19:10;;;;;;;21.58;7.43;;;;;;;14.96;nan;101373.88;5019980;28;20092;-71
2022/03/25 11:21:44;;;;;;;11.65;6.43;;;;;;;15.13;nan;101387.25;5008958;28;20037;-70
2022/03/25 11:24:22;;;;;;;20.55;7.40;;;;;;;15.18;nan;101388.19;5012846;28;20064;-71
2022/03/25 11:26:50;;;;;;;18.40;7.10;;;;;;;15.27;nan;101383.31;5026946;28;20061;-71
2022/03/25 11:29:18;;;;;;;20.83;7.03;;;;;;;15.32;nan;101381.59;5011206;28;20033;-70
2022/03/25 11:32:07;;;;;;;37.63;7.50;;;;;;;15.40;nan;101376.97;5027228;28;20041;-71
2022/03/25 11:34:33;;;;;;;20.50;6.90;;;;;;;15.32;nan;101372.81;5027695;28;20774;-70
2022/03/25 11:37:14;;;;;;;19.27;6.78;;;;;;;15.38;nan;101379.06;5000542;28;20045;-72
2022/03/25 11:39:39;;;;;;;16.52;6.85;;;;;;;15.33;nan;101366.47;5040564;28;20060;-72
2022/03/25 11:42:06;;;;;;;13.27;7.13;;;;;;;15.32;nan;101351.59;5020173;28;20049;-71
2022/03/25 11:44:33;;;;;;;18.63;7.28;;;;;;;15.47;nan;101356.44;5020086;28;20037;-72